Fearrington Village, North Carolina
Current Conditions -  °F | °C
As of 10:55 AM on Saturday 25 Oct 2014 (Local Time) from KTTA Reporting Station
Clear Clear  
Wind Chill: 59°   Ceiling: Unl
Heat Index: 59°   Visibility: 10mi
Dew Point: 44°   Wind: 3mph
Humidity: 58%   Direction: 40°NE
Pressure: 30.02"   Gusts: NA
Location:  35.7517°N, 79.2325°W
Report Text: KTTA 251455Z AUTO 04003KT 10SM CLR 15/07 A3002 RMK AO2 T01510068
Loading
Personal Weather Stations






























Interactive Weather Map
Tropical Storm Tracking
New forecast layout! Learn more

10-Day Weather Forecast

Advertisements
Track Severe Weather on mobile